createdAt,value
2023-03-29T00:02:35.358Z,68.28
2023-03-29T00:05:08.562Z,68.56
2023-03-29T00:08:02.465Z,69.03
2023-03-29T00:10:37.451Z,68.67
2023-03-29T00:13:17.818Z,69.33
2023-03-29T00:15:48.836Z,70.37
2023-03-29T00:18:17.310Z,68.97
2023-03-29T00:20:47.684Z,69.19
2023-03-29T00:23:20.767Z,71.12
2023-03-29T00:25:54.240Z,70.53
2023-03-29T00:28:33.362Z,70.42
2023-03-29T00:31:13.854Z,71.92
2023-03-29T00:33:44.574Z,70.88
2023-03-29T00:36:17.310Z,73.96
2023-03-29T00:38:48.063Z,72.46
2023-03-29T00:41:19.589Z,74.22
2023-03-29T00:43:56.119Z,72.98
2023-03-29T00:46:30.415Z,71.59
2023-03-29T00:49:05.449Z,71.57
2023-03-29T00:51:41.098Z,70.44
2023-03-29T00:54:16.382Z,70.00
2023-03-29T00:57:08.386Z,70.33
2023-03-29T00:59:42.842Z,70.27
2023-03-29T01:02:17.989Z,70.33
2023-03-29T01:04:54.129Z,70.27
2023-03-29T01:07:32.702Z,70.35
2023-03-29T01:10:12.641Z,71.50
2023-03-29T01:12:59.409Z,69.50
2023-03-29T01:15:33.754Z,69.06
2023-03-29T01:18:05.492Z,70.46
2023-03-29T01:20:51.441Z,68.70
2023-03-29T01:23:44.185Z,68.39
2023-03-29T01:26:19.818Z,69.91
2023-03-29T01:29:02.132Z,69.64
2023-03-29T01:31:45.798Z,70.30
2023-03-29T01:34:20.471Z,70.89
2023-03-29T01:36:54.772Z,69.73
2023-03-29T01:39:23.837Z,70.05
2023-03-29T01:42:01.160Z,72.01
2023-03-29T01:44:34.106Z,73.45
2023-03-29T01:47:12.943Z,73.21
2023-03-29T01:49:52.556Z,72.10
2023-03-29T01:52:24.506Z,70.24
2023-03-29T01:55:08.167Z,69.61
2023-03-29T01:57:38.064Z,71.31
2023-03-29T02:00:16.302Z,69.00
2023-03-29T02:02:48.082Z,70.35
2023-03-29T02:05:17.999Z,70.23
2023-03-29T02:07:56.902Z,71.78
2023-03-29T02:10:27.621Z,71.10
2023-03-29T02:12:56.123Z,71.94
2023-03-29T02:15:28.100Z,73.63
2023-03-29T02:17:59.246Z,75.46
2023-03-29T02:20:30.860Z,76.19
2023-03-29T02:23:07.551Z,74.68
2023-03-29T02:25:38.064Z,75.40
2023-03-29T02:28:12.254Z,75.00
2023-03-29T02:30:49.917Z,72.42
2023-03-29T02:33:25.223Z,72.05
2023-03-29T02:35:59.346Z,71.72
2023-03-29T02:38:34.800Z,71.27
2023-03-29T02:41:23.499Z,68.69
2023-03-29T02:43:58.075Z,69.12
2023-03-29T02:46:31.959Z,68.49
2023-03-29T02:49:01.795Z,67.12
2023-03-29T02:51:42.901Z,66.58
2023-03-29T02:54:15.118Z,67.13
2023-03-29T02:56:48.733Z,66.62
2023-03-29T02:59:17.991Z,66.28
2023-03-29T03:01:50.173Z,64.88
2023-03-29T03:04:22.324Z,66.27
2023-03-29T03:06:55.853Z,66.27
2023-03-29T03:09:28.970Z,65.58
2023-03-29T03:12:00.107Z,67.31
2023-03-29T03:14:31.922Z,67.17
2023-03-29T03:17:04.864Z,67.62
2023-03-29T03:19:41.800Z,68.52
2023-03-29T03:22:12.578Z,68.09
2023-03-29T03:24:41.698Z,66.88
2023-03-29T03:27:11.298Z,67.01
2023-03-29T03:29:41.992Z,65.29
2023-03-29T03:32:13.965Z,64.46
2023-03-29T03:34:44.188Z,65.07
2023-03-29T03:37:16.312Z,63.34
2023-03-29T03:39:45.176Z,65.17
2023-03-29T03:42:17.138Z,63.13
2023-03-29T03:44:48.824Z,64.45
2023-03-29T03:47:31.861Z,63.62
2023-03-29T03:50:03.404Z,64.16
2023-03-29T03:52:34.644Z,63.13
2023-03-29T03:55:05.558Z,64.55
2023-03-29T03:57:37.773Z,62.09
2023-03-29T04:00:19.913Z,63.42
2023-03-29T04:02:51.220Z,63.53
2023-03-29T04:05:23.473Z,62.39
2023-03-29T04:07:58.070Z,63.50
2023-03-29T04:10:35.937Z,62.95
2023-03-29T04:13:10.136Z,63.44
2023-03-29T04:15:40.083Z,63.13
2023-03-29T04:18:10.711Z,63.57
2023-03-29T04:20:47.878Z,62.51
2023-03-29T04:23:17.758Z,62.34
2023-03-29T04:26:00.169Z,60.91
2023-03-29T04:28:30.070Z,60.17
2023-03-29T04:31:00.888Z,59.98
2023-03-29T04:33:34.717Z,59.14
2023-03-29T04:36:04.355Z,59.70
2023-03-29T04:38:37.215Z,59.39
2023-03-29T04:41:09.218Z,59.85
2023-03-29T04:43:40.425Z,60.66
2023-03-29T04:46:18.453Z,60.51
2023-03-29T04:48:55.176Z,60.41
2023-03-29T04:51:25.741Z,60.03
2023-03-29T04:53:55.355Z,60.27
2023-03-29T04:56:26.509Z,59.68
2023-03-29T04:58:58.654Z,59.06
2023-03-29T05:01:51.859Z,58.37
2023-03-29T05:04:21.925Z,58.28
2023-03-29T05:06:54.038Z,59.01
2023-03-29T05:09:26.973Z,58.33
2023-03-29T05:12:02.576Z,58.90
2023-03-29T05:14:36.726Z,58.75
2023-03-29T05:17:09.177Z,59.13
2023-03-29T05:19:50.862Z,58.87
2023-03-29T05:22:19.554Z,59.17
2023-03-29T05:24:55.372Z,59.19
2023-03-29T05:27:29.278Z,58.80
2023-03-29T05:30:11.156Z,59.07
2023-03-29T05:32:53.380Z,59.96
2023-03-29T05:35:24.729Z,59.68
2023-03-29T05:37:56.827Z,58.83
2023-03-29T05:40:27.274Z,58.23
2023-03-29T05:43:01.966Z,58.12
2023-03-29T05:45:35.864Z,58.60
2023-03-29T05:48:05.672Z,58.57
2023-03-29T05:50:39.390Z,60.71
2023-03-29T05:53:15.192Z,58.83
2023-03-29T05:55:48.473Z,59.56
2023-03-29T05:58:25.049Z,60.05
2023-03-29T06:00:57.887Z,59.66
2023-03-29T06:03:29.894Z,59.56
2023-03-29T06:06:02.426Z,59.17
2023-03-29T06:08:31.583Z,60.12
2023-03-29T06:11:05.188Z,59.08
2023-03-29T06:13:39.131Z,58.60
2023-03-29T06:16:10.572Z,58.53
2023-03-29T06:18:44.754Z,59.39
2023-03-29T06:21:17.413Z,57.70
2023-03-29T06:23:48.771Z,57.48
2023-03-29T06:26:25.444Z,56.83
2023-03-29T06:28:55.631Z,57.92
2023-03-29T06:31:27.914Z,58.71
2023-03-29T06:34:00.144Z,56.46
2023-03-29T06:39:33.497Z,56.15
2023-03-29T06:42:20.233Z,56.20
2023-03-29T06:44:49.592Z,55.46
2023-03-29T06:47:22.225Z,56.08
2023-03-29T06:49:57.349Z,54.76
2023-03-29T06:52:27.818Z,56.61
2023-03-29T06:54:56.088Z,57.23
2023-03-29T06:57:24.883Z,56.45
2023-03-29T06:59:55.206Z,56.76
2023-03-29T07:02:26.033Z,58.63
2023-03-29T07:05:12.464Z,57.48
2023-03-29T07:07:57.537Z,57.07
2023-03-29T07:10:34.821Z,57.68
2023-03-29T07:13:04.071Z,56.71
2023-03-29T07:15:39.105Z,58.52
2023-03-29T07:18:13.715Z,57.28
2023-03-29T07:20:42.648Z,57.10
2023-03-29T07:23:21.407Z,57.14
2023-03-29T07:25:51.922Z,56.21
2023-03-29T07:28:20.965Z,56.06
2023-03-29T07:30:51.928Z,55.37
2023-03-29T07:33:22.783Z,55.20
2023-03-29T07:35:53.112Z,56.19
2023-03-29T07:38:31.285Z,56.18
2023-03-29T07:41:01.330Z,58.46
2023-03-29T07:43:30.428Z,57.16
2023-03-29T07:46:02.296Z,57.17
2023-03-29T07:48:31.421Z,56.07
2023-03-29T07:51:00.047Z,57.53
2023-03-29T07:53:31.038Z,56.39
2023-03-29T07:56:00.266Z,57.74
2023-03-29T07:58:38.858Z,57.19
2023-03-29T08:01:08.775Z,55.59
2023-03-29T08:03:38.258Z,55.42
2023-03-29T08:06:10.195Z,55.30
2023-03-29T08:08:43.467Z,55.90
2023-03-29T08:11:11.408Z,56.37
2023-03-29T08:13:46.363Z,59.16
2023-03-29T08:16:16.206Z,57.55
2023-03-29T08:18:45.551Z,57.18
2023-03-29T08:21:27.287Z,57.71
2023-03-29T08:24:00.865Z,57.13
2023-03-29T08:26:35.425Z,56.38
2023-03-29T08:29:07.575Z,56.07
2023-03-29T08:31:37.385Z,55.81
2023-03-29T08:34:10.879Z,55.09
2023-03-29T08:36:40.650Z,56.63
2023-03-29T08:39:19.637Z,56.18
2023-03-29T08:41:58.793Z,55.44
2023-03-29T08:44:43.373Z,55.67
2023-03-29T08:47:19.188Z,54.83
2023-03-29T08:49:51.616Z,55.30
2023-03-29T08:52:27.256Z,56.24
2023-03-29T08:55:03.436Z,56.38
2023-03-29T08:57:47.060Z,55.44
2023-03-29T09:00:25.822Z,56.07
2023-03-29T09:03:17.777Z,56.12
2023-03-29T09:05:51.825Z,55.66
2023-03-29T09:08:23.020Z,55.72
2023-03-29T09:11:12.588Z,54.73
2023-03-29T09:13:49.262Z,54.99
2023-03-29T09:16:26.878Z,55.74
2023-03-29T09:19:08.582Z,55.35
2023-03-29T09:21:46.992Z,53.80
2023-03-29T09:24:35.309Z,54.49
2023-03-29T09:27:15.385Z,53.70
2023-03-29T09:29:55.864Z,54.53
2023-03-29T09:32:26.923Z,53.43
2023-03-29T09:35:01.793Z,53.77
2023-03-29T09:37:36.222Z,54.96
2023-03-29T09:40:17.930Z,53.55
2023-03-29T09:42:50.145Z,53.04
2023-03-29T09:45:19.155Z,53.65
2023-03-29T09:47:51.217Z,53.31
2023-03-29T09:50:30.930Z,52.76
2023-03-29T09:53:01.401Z,52.27
2023-03-29T09:55:34.317Z,52.37
2023-03-29T09:58:15.713Z,52.13
2023-03-29T10:00:45.056Z,52.80
2023-03-29T10:03:22.448Z,51.44
2023-03-29T10:05:53.598Z,51.72
2023-03-29T10:08:29.925Z,50.55
2023-03-29T10:11:05.327Z,51.88
2023-03-29T10:13:46.230Z,50.09
2023-03-29T10:16:25.352Z,50.05
2023-03-29T10:18:57.070Z,49.62
2023-03-29T10:21:29.460Z,50.42
2023-03-29T10:24:00.548Z,50.64
2023-03-29T10:26:33.033Z,49.08
2023-03-29T10:29:05.863Z,49.80
2023-03-29T10:31:42.386Z,51.04
2023-03-29T10:34:21.463Z,51.36
2023-03-29T10:37:00.670Z,49.63
2023-03-29T10:39:36.973Z,47.84
2023-03-29T10:42:23.080Z,48.35
2023-03-29T10:45:24.863Z,48.08
2023-03-29T10:48:01.103Z,48.56
2023-03-29T10:50:39.102Z,46.88
2023-03-29T10:53:19.248Z,47.46
2023-03-29T10:55:58.451Z,47.03
2023-03-29T10:58:34.956Z,47.85
2023-03-29T11:01:07.981Z,46.77
2023-03-29T11:04:05.060Z,48.11
2023-03-29T11:06:46.317Z,47.55
2023-03-29T11:09:19.855Z,49.72
2023-03-29T11:12:15.561Z,48.89
2023-03-29T11:15:02.190Z,49.26
2023-03-29T11:17:43.696Z,49.17
2023-03-29T11:20:39.073Z,48.36
2023-03-29T11:23:23.812Z,47.80
2023-03-29T11:26:02.887Z,48.42
2023-03-29T11:28:39.284Z,47.09
2023-03-29T11:31:17.357Z,47.63
2023-03-29T11:34:01.351Z,47.52
2023-03-29T11:36:42.493Z,48.58
2023-03-29T11:39:23.110Z,49.40
2023-03-29T11:41:55.975Z,50.57
2023-03-29T11:44:31.374Z,50.57
2023-03-29T11:47:15.324Z,49.43
2023-03-29T11:49:49.901Z,49.39
2023-03-29T11:52:25.655Z,48.62
2023-03-29T11:54:57.841Z,49.10
2023-03-29T11:57:38.020Z,48.33
2023-03-29T12:00:15.831Z,47.74
2023-03-29T12:02:48.175Z,48.57
2023-03-29T12:05:24.803Z,47.96
2023-03-29T12:08:09.074Z,48.74
2023-03-29T12:10:40.492Z,48.87
2023-03-29T12:13:15.109Z,47.11
2023-03-29T12:15:48.814Z,48.68
2023-03-29T12:18:24.347Z,48.32
2023-03-29T12:20:59.454Z,49.23
2023-03-29T12:23:32.828Z,49.09
2023-03-29T12:26:06.262Z,49.27
2023-03-29T12:28:55.418Z,48.97
2023-03-29T12:31:34.270Z,49.39
2023-03-29T12:34:12.255Z,50.16
2023-03-29T12:37:01.287Z,49.16
2023-03-29T12:39:33.587Z,49.23
2023-03-29T12:42:22.616Z,50.20
2023-03-29T12:45:02.372Z,51.71
2023-03-29T12:47:35.747Z,50.50
2023-03-29T12:50:11.207Z,49.36
2023-03-29T12:52:48.085Z,48.49
2023-03-29T12:55:26.329Z,48.60
2023-03-29T12:58:16.870Z,49.46
2023-03-29T13:00:51.847Z,48.55
2023-03-29T13:03:32.392Z,49.43
2023-03-29T13:06:03.619Z,48.59
2023-03-29T13:08:37.138Z,49.93
2023-03-29T13:11:12.299Z,52.17
2023-03-29T13:13:44.107Z,52.92
2023-03-29T13:16:19.025Z,53.55
2023-03-29T13:18:56.725Z,52.42
2023-03-29T13:21:38.307Z,55.04
2023-03-29T13:24:32.442Z,55.61
2023-03-29T13:27:13.576Z,55.64
2023-03-29T13:29:53.698Z,55.79
2023-03-29T13:32:32.668Z,55.81
2023-03-29T13:35:08.028Z,56.33
2023-03-29T13:37:52.092Z,56.68
2023-03-29T13:40:50.397Z,56.46
2023-03-29T13:43:32.750Z,59.37
2023-03-29T13:46:31.467Z,62.39
2023-03-29T13:49:07.914Z,64.98
2023-03-29T13:51:42.505Z,66.44
2023-03-29T13:54:18.441Z,64.30
2023-03-29T13:56:59.996Z,63.73
2023-03-29T13:59:35.872Z,62.73
2023-03-29T14:02:07.243Z,61.57
2023-03-29T14:04:44.772Z,64.46
2023-03-29T14:07:16.332Z,61.34
2023-03-29T14:10:03.492Z,60.92
2023-03-29T14:12:35.432Z,59.81
2023-03-29T14:15:10.783Z,58.70
2023-03-29T14:17:39.051Z,57.73
2023-03-29T14:20:11.651Z,58.13
2023-03-29T14:22:44.707Z,57.32
2023-03-29T14:25:20.386Z,55.60
2023-03-29T14:27:51.643Z,54.96
2023-03-29T14:30:27.824Z,54.40
2023-03-29T14:32:57.070Z,53.80
2023-03-29T14:35:32.031Z,53.39
2023-03-29T14:38:06.884Z,55.82
2023-03-29T14:40:38.890Z,56.91
2023-03-29T14:43:14.143Z,54.46
2023-03-29T14:45:48.691Z,54.91
2023-03-29T14:48:18.725Z,54.89
2023-03-29T14:50:48.379Z,53.76
2023-03-29T14:53:20.668Z,54.28
2023-03-29T14:55:52.675Z,53.78
2023-03-29T14:58:26.144Z,53.98
2023-03-29T15:01:01.444Z,53.07
2023-03-29T15:03:31.402Z,52.21
2023-03-29T15:06:02.538Z,53.62
2023-03-29T15:08:36.950Z,53.13
2023-03-29T15:11:17.824Z,52.70
2023-03-29T15:13:53.811Z,51.14
2023-03-29T15:16:27.401Z,53.85
2023-03-29T15:18:56.654Z,54.95
2023-03-29T15:21:26.235Z,54.62
2023-03-29T15:24:01.976Z,56.08
2023-03-29T15:26:33.192Z,55.84
2023-03-29T15:29:11.204Z,55.50
2023-03-29T15:31:44.363Z,56.49
2023-03-29T15:34:16.338Z,56.05
2023-03-29T15:36:55.229Z,55.85
2023-03-29T15:39:25.511Z,55.26
2023-03-29T15:41:55.001Z,54.96
2023-03-29T15:44:25.106Z,55.55
2023-03-29T15:47:00.174Z,55.33
2023-03-29T15:49:33.496Z,56.07
2023-03-29T15:52:03.700Z,54.72
2023-03-29T15:54:34.256Z,55.81
2023-03-29T15:57:11.180Z,56.57
2023-03-29T15:59:42.538Z,56.09
2023-03-29T16:02:32.140Z,59.75
2023-03-29T16:05:02.848Z,57.88
2023-03-29T16:07:32.159Z,57.88
2023-03-29T16:10:00.877Z,58.64
2023-03-29T16:12:32.389Z,58.17
2023-03-29T16:15:07.327Z,60.89
2023-03-29T16:17:40.196Z,59.80
2023-03-29T16:20:14.979Z,60.29
2023-03-29T16:22:56.248Z,59.22
2023-03-29T16:25:27.634Z,59.30
2023-03-29T16:27:56.525Z,58.46
2023-03-29T16:30:28.403Z,58.86
2023-03-29T16:33:06.652Z,57.34
2023-03-29T16:38:30.754Z,57.80
2023-03-29T16:41:03.072Z,56.54
2023-03-29T16:43:34.832Z,56.65
2023-03-29T16:46:04.266Z,57.46
2023-03-29T16:48:38.777Z,56.94
2023-03-29T16:53:53.791Z,55.61
2023-03-29T16:56:31.035Z,55.32
2023-03-29T16:59:03.035Z,55.36
2023-03-29T17:01:36.423Z,54.81
2023-03-29T17:04:13.858Z,55.36
2023-03-29T17:06:43.615Z,54.94
2023-03-29T17:09:12.250Z,55.06
2023-03-29T17:11:46.474Z,53.11
2023-03-29T17:14:21.714Z,51.73
2023-03-29T17:16:51.331Z,51.25
2023-03-29T17:19:25.364Z,50.46
2023-03-29T17:21:57.144Z,49.80
2023-03-29T17:24:25.587Z,49.99
2023-03-29T17:26:59.558Z,51.52
2023-03-29T17:29:31.081Z,50.65
2023-03-29T17:32:01.431Z,50.63
2023-03-29T17:34:36.013Z,51.04
2023-03-29T17:37:05.629Z,51.27
2023-03-29T17:39:37.744Z,50.80
2023-03-29T17:42:06.611Z,50.76
2023-03-29T17:44:37.207Z,50.88
2023-03-29T17:47:07.613Z,50.88
2023-03-29T17:49:40.186Z,50.10
2023-03-29T17:52:12.284Z,50.19
2023-03-29T17:54:50.495Z,49.87
2023-03-29T17:57:23.066Z,49.86
2023-03-29T17:59:53.517Z,49.67
2023-03-29T18:02:24.508Z,50.00
2023-03-29T18:05:01.961Z,49.50
2023-03-29T18:07:35.716Z,50.19
2023-03-29T18:10:09.684Z,49.78
2023-03-29T18:12:40.960Z,49.98
2023-03-29T18:15:17.844Z,50.00
2023-03-29T18:17:51.225Z,50.59
2023-03-29T18:20:26.071Z,51.02
2023-03-29T18:22:56.535Z,51.70
2023-03-29T18:25:31.846Z,51.58
2023-03-29T18:28:05.886Z,52.16
2023-03-29T18:30:42.073Z,52.18
2023-03-29T18:33:12.136Z,52.40
2023-03-29T18:35:50.737Z,52.16
2023-03-29T18:38:26.755Z,51.36
2023-03-29T18:40:57.799Z,53.22
2023-03-29T18:43:26.484Z,54.01
2023-03-29T18:45:55.856Z,54.42
2023-03-29T18:48:24.414Z,53.24
2023-03-29T18:50:54.989Z,53.28
2023-03-29T18:53:23.101Z,52.75
2023-03-29T18:55:51.736Z,53.06
2023-03-29T18:58:26.577Z,53.51
2023-03-29T19:01:02.641Z,53.44
2023-03-29T19:03:32.401Z,52.54
2023-03-29T19:06:07.298Z,52.15
2023-03-29T19:08:40.062Z,52.63
2023-03-29T19:11:11.877Z,51.48
2023-03-29T19:13:42.821Z,51.95
2023-03-29T19:16:13.713Z,51.64
2023-03-29T19:18:45.032Z,51.40
2023-03-29T19:21:19.051Z,52.75
2023-03-29T19:23:53.385Z,52.40
2023-03-29T19:26:33.769Z,52.92
2023-03-29T19:29:02.470Z,53.75
2023-03-29T19:31:40.215Z,54.30
2023-03-29T19:34:11.435Z,52.78
2023-03-29T19:36:43.811Z,54.05
2023-03-29T19:39:16.187Z,52.89
2023-03-29T19:41:50.457Z,54.09
2023-03-29T19:44:21.567Z,53.92
2023-03-29T19:46:49.491Z,53.72
2023-03-29T19:49:20.615Z,53.84
2023-03-29T19:51:55.044Z,53.68
2023-03-29T19:54:23.984Z,52.27
2023-03-29T19:56:52.854Z,52.81
2023-03-29T19:59:26.624Z,51.98
2023-03-29T20:01:57.678Z,51.61
2023-03-29T20:04:30.680Z,52.12
2023-03-29T20:07:04.340Z,53.30
2023-03-29T20:09:45.226Z,53.70
2023-03-29T20:12:18.022Z,53.43
2023-03-29T20:14:47.871Z,53.30
2023-03-29T20:17:20.410Z,53.91
2023-03-29T20:19:51.585Z,54.45
2023-03-29T20:22:26.306Z,54.52
2023-03-29T20:24:54.727Z,55.20
2023-03-29T20:27:28.256Z,54.78
2023-03-29T20:29:56.841Z,54.65
2023-03-29T20:32:27.900Z,54.64
2023-03-29T20:34:58.002Z,55.21
2023-03-29T20:37:30.724Z,55.77
2023-03-29T20:39:59.442Z,55.47
2023-03-29T20:42:32.760Z,54.79
2023-03-29T20:45:03.492Z,54.79
2023-03-29T20:47:32.743Z,54.46
2023-03-29T20:50:09.098Z,54.07
2023-03-29T20:52:41.021Z,54.35
2023-03-29T20:55:13.303Z,54.57
2023-03-29T20:57:43.808Z,54.71
2023-03-29T21:00:15.269Z,55.67
2023-03-29T21:02:46.912Z,55.70
2023-03-29T21:05:16.071Z,55.51
2023-03-29T21:07:48.435Z,55.32
2023-03-29T21:10:18.030Z,55.42
2023-03-29T21:12:46.660Z,55.70
2023-03-29T21:15:18.362Z,55.14
2023-03-29T21:17:57.804Z,54.88
2023-03-29T21:20:25.825Z,55.10
2023-03-29T21:22:55.404Z,55.96
2023-03-29T21:25:25.144Z,55.25
2023-03-29T21:28:00.602Z,55.87
2023-03-29T21:30:35.204Z,55.58
2023-03-29T21:33:06.710Z,55.66
2023-03-29T21:35:39.073Z,56.42
2023-03-29T21:38:12.755Z,56.04
2023-03-29T21:40:46.081Z,56.06
2023-03-29T21:43:31.125Z,55.82
2023-03-29T21:46:12.948Z,55.70
2023-03-29T21:48:42.163Z,56.77
2023-03-29T21:51:15.757Z,56.65
2023-03-29T21:53:47.413Z,57.28
2023-03-29T21:56:21.310Z,56.52
2023-03-29T21:58:50.210Z,56.08
2023-03-29T22:01:20.415Z,57.12
2023-03-29T22:03:53.373Z,57.13
2023-03-29T22:06:26.498Z,58.05
2023-03-29T22:09:01.062Z,57.33
2023-03-29T22:11:30.188Z,56.54
2023-03-29T22:14:00.918Z,56.56
2023-03-29T22:16:31.630Z,57.78
2023-03-29T22:19:00.051Z,57.65
2023-03-29T22:21:31.301Z,58.25
2023-03-29T22:24:02.933Z,59.07
2023-03-29T22:26:36.332Z,58.73
2023-03-29T22:29:07.015Z,58.76
2023-03-29T22:31:46.289Z,59.02
2023-03-29T22:34:16.013Z,59.31
2023-03-29T22:36:46.482Z,59.29
2023-03-29T22:39:17.128Z,59.56
2023-03-29T22:41:48.298Z,58.43
2023-03-29T22:44:19.268Z,58.24
2023-03-29T22:46:48.849Z,58.88
2023-03-29T22:49:19.636Z,58.98
2023-03-29T22:51:54.273Z,59.29
2023-03-29T22:54:25.897Z,58.63
2023-03-29T22:57:12.994Z,58.43
2023-03-29T22:59:41.257Z,58.69
2023-03-29T23:02:12.379Z,58.22
2023-03-29T23:04:42.210Z,58.39
2023-03-29T23:07:15.982Z,57.99
2023-03-29T23:09:48.234Z,57.55
2023-03-29T23:12:22.364Z,58.11
2023-03-29T23:14:53.292Z,57.92
2023-03-29T23:17:27.206Z,58.01
2023-03-29T23:19:58.496Z,58.48
2023-03-29T23:22:32.194Z,57.46
2023-03-29T23:25:09.754Z,58.46
2023-03-29T23:27:39.529Z,59.17
2023-03-29T23:30:13.337Z,59.36
2023-03-29T23:32:43.269Z,59.32
2023-03-29T23:35:18.285Z,59.90
2023-03-29T23:37:47.014Z,61.88
2023-03-29T23:40:23.816Z,61.11
2023-03-29T23:42:53.447Z,61.09
2023-03-29T23:45:22.277Z,61.27
2023-03-29T23:47:52.255Z,60.83
2023-03-29T23:50:29.690Z,60.97
2023-03-29T23:53:05.522Z,60.50
2023-03-29T23:55:41.300Z,60.92
2023-03-29T23:58:13.961Z,60.11
